Time;durP1;ratioP1;P1;durP2;ratioP2;P2;SDS_P1;SDS_P2;PMS_P1;PMS_P2;Temp;Humidity;BMP_temperature;BMP_pressure;BME280_temperature;BME280_humidity;BME280_pressure;Samples;Min_cycle;Max_cycle;Signal;HPM_P1;HPM_P2
2024/01/17 00:01:56;;;;;;;6.35;3.42;;;;;;;;;;5011782;28;20088;-84
2024/01/17 00:04:22;;;;;;;8.57;3.15;;;;;;;;;;5008767;28;20045;-85
2024/01/17 00:06:48;;;;;;;5.53;3.05;;;;;;;;;;4994570;28;20046;-85
2024/01/17 00:09:15;;;;;;;4.70;3.25;;;;;;;;;;5003591;28;20042;-85
2024/01/17 00:11:42;;;;;;;4.30;3.28;;;;;;;;;;4992965;28;20047;-85
2024/01/17 00:14:08;;;;;;;4.97;3.05;;;;;;;;;;5013846;28;20045;-85
2024/01/17 00:16:34;;;;;;;9.80;4.50;;;;;;;;;;5005767;28;20026;-84
2024/01/17 00:19:00;;;;;;;4.78;2.20;;;;;;;;;;5025978;28;20049;-85
2024/01/17 00:21:26;;;;;;;6.45;4.00;;;;;;;;;;5008378;28;20042;-85
2024/01/17 00:23:52;;;;;;;8.73;4.78;;;;;;;;;;5004211;28;20038;-84
2024/01/17 00:26:18;;;;;;;8.48;3.53;;;;;;;;;;4994359;28;20041;-85
2024/01/17 00:28:44;;;;;;;6.57;3.65;;;;;;;;;;5006303;28;20091;-85
2024/01/17 00:31:10;;;;;;;5.57;3.15;;;;;;;;;;5005667;28;20042;-85
2024/01/17 00:33:36;;;;;;;6.22;4.10;;;;;;;;;;5004727;28;20042;-85
2024/01/17 00:36:03;;;;;;;7.57;3.20;;;;;;;;;;5006002;28;20046;-85
2024/01/17 00:38:29;;;;;;;11.35;5.30;;;;;;;;;;5004502;28;20041;-85
2024/01/17 00:40:55;;;;;;;8.35;5.57;;;;;;;;;;4989671;28;20116;-85
2024/01/17 00:43:21;;;;;;;8.05;5.60;;;;;;;;;;5003854;28;20519;-85
2024/01/17 00:45:47;;;;;;;7.20;3.95;;;;;;;;;;4999963;28;20079;-85
2024/01/17 00:48:15;;;;;;;8.40;5.50;;;;;;;;;;5002790;28;20452;-85
2024/01/17 00:50:42;;;;;;;12.35;5.90;;;;;;;;;;4999430;28;20089;-85
2024/01/17 00:53:08;;;;;;;10.00;5.70;;;;;;;;;;5005313;28;20045;-85
2024/01/17 00:55:34;;;;;;;8.07;4.90;;;;;;;;;;5003632;28;20038;-85
2024/01/17 00:58:00;;;;;;;9.90;5.82;;;;;;;;;;4990993;28;20048;-85
2024/01/17 01:00:26;;;;;;;5.95;3.88;;;;;;;;;;4989662;28;20037;-85
2024/01/17 01:02:52;;;;;;;11.00;6.18;;;;;;;;;;5003563;28;20056;-85
2024/01/17 01:05:18;;;;;;;9.45;5.10;;;;;;;;;;4988622;28;20103;-85
2024/01/17 01:07:44;;;;;;;5.22;3.95;;;;;;;;;;4987360;28;20029;-85
2024/01/17 01:10:11;;;;;;;11.85;5.82;;;;;;;;;;5000954;28;20044;-85
2024/01/17 01:12:38;;;;;;;11.45;6.05;;;;;;;;;;4990631;28;20033;-85
2024/01/17 01:15:04;;;;;;;10.13;6.22;;;;;;;;;;5006802;28;20029;-85
2024/01/17 01:17:31;;;;;;;6.68;3.53;;;;;;;;;;5002491;28;20141;-85
2024/01/17 01:19:57;;;;;;;9.02;5.88;;;;;;;;;;4990225;28;20115;-85
2024/01/17 01:22:23;;;;;;;9.35;5.95;;;;;;;;;;5002600;28;20033;-85
2024/01/17 01:24:49;;;;;;;10.68;4.88;;;;;;;;;;5003066;28;20045;-85
2024/01/17 01:27:15;;;;;;;6.93;4.85;;;;;;;;;;5003689;28;20045;-85
2024/01/17 01:29:41;;;;;;;10.27;6.60;;;;;;;;;;5024695;28;20204;-85
2024/01/17 01:32:07;;;;;;;12.07;7.65;;;;;;;;;;5002314;28;20034;-86
2024/01/17 01:34:33;;;;;;;7.35;4.60;;;;;;;;;;5001774;28;20053;-85
2024/01/17 01:37:00;;;;;;;2.50;2.30;;;;;;;;;;4991188;28;20045;-85
2024/01/17 01:39:26;;;;;;;5.97;3.67;;;;;;;;;;4986745;28;20033;-85
2024/01/17 01:41:52;;;;;;;6.97;4.68;;;;;;;;;;5003039;28;20109;-85
2024/01/17 01:44:18;;;;;;;10.25;5.60;;;;;;;;;;5005929;28;20029;-85
2024/01/17 01:46:46;;;;;;;8.77;6.20;;;;;;;;;;5004502;28;20493;-85
2024/01/17 01:49:12;;;;;;;8.70;4.53;;;;;;;;;;5001852;28;20038;-85
2024/01/17 01:51:39;;;;;;;9.77;5.82;;;;;;;;;;5021751;28;20038;-86
2024/01/17 01:54:06;;;;;;;13.55;6.82;;;;;;;;;;5002511;28;20101;-86
2024/01/17 01:56:33;;;;;;;8.90;4.95;;;;;;;;;;5003253;28;20048;-84
2024/01/17 01:59:01;;;;;;;9.88;6.60;;;;;;;;;;5021167;28;20550;-85
2024/01/17 02:01:27;;;;;;;12.10;6.78;;;;;;;;;;4998901;28;20124;-85
2024/01/17 02:03:54;;;;;;;5.68;4.15;;;;;;;;;;4996800;28;20363;-84
2024/01/17 02:06:21;;;;;;;6.03;4.05;;;;;;;;;;4986841;28;20045;-85
2024/01/17 02:08:47;;;;;;;7.15;4.80;;;;;;;;;;4988947;28;20034;-85
2024/01/17 02:11:13;;;;;;;11.65;7.18;;;;;;;;;;4997472;28;20507;-85
2024/01/17 02:13:40;;;;;;;15.55;7.68;;;;;;;;;;5013749;28;20468;-85
2024/01/17 02:16:06;;;;;;;11.45;7.88;;;;;;;;;;5000126;28;20420;-85
2024/01/17 02:18:32;;;;;;;15.05;8.38;;;;;;;;;;4988354;28;20041;-85
2024/01/17 02:20:59;;;;;;;13.98;8.00;;;;;;;;;;5003761;28;20068;-85
2024/01/17 02:23:25;;;;;;;13.95;6.72;;;;;;;;;;4979787;28;20493;-85
2024/01/17 02:25:52;;;;;;;11.80;7.07;;;;;;;;;;5006236;28;20076;-85
2024/01/17 02:28:18;;;;;;;15.10;9.43;;;;;;;;;;5003507;28;20083;-84
2024/01/17 02:30:44;;;;;;;10.48;6.15;;;;;;;;;;5005137;28;20037;-84
2024/01/17 02:33:10;;;;;;;9.45;5.60;;;;;;;;;;5003377;28;20045;-84
2024/01/17 02:35:37;;;;;;;13.85;9.20;;;;;;;;;;4993255;28;20046;-84
2024/01/17 02:38:04;;;;;;;13.10;9.65;;;;;;;;;;4987245;28;20110;-85
2024/01/17 02:40:30;;;;;;;12.20;7.60;;;;;;;;;;4993245;28;20038;-84
2024/01/17 02:42:56;;;;;;;12.43;7.43;;;;;;;;;;4997822;28;20498;-85
2024/01/17 02:45:22;;;;;;;15.02;8.75;;;;;;;;;;5001928;28;20075;-84
2024/01/17 02:47:48;;;;;;;12.48;8.45;;;;;;;;;;4991864;28;20050;-84
2024/01/17 02:50:14;;;;;;;11.43;7.53;;;;;;;;;;4972923;28;20042;-85
2024/01/17 02:52:41;;;;;;;14.93;9.18;;;;;;;;;;4978822;28;20046;-84
2024/01/17 02:55:08;;;;;;;12.50;9.35;;;;;;;;;;4990988;28;20439;-85
2024/01/17 02:57:34;;;;;;;13.25;7.18;;;;;;;;;;4990786;28;20481;-84
2024/01/17 03:00:00;;;;;;;11.40;7.45;;;;;;;;;;4985058;28;20039;-85
2024/01/17 03:02:26;;;;;;;10.70;4.68;;;;;;;;;;4958113;28;20043;-84
2024/01/17 03:04:52;;;;;;;13.32;8.48;;;;;;;;;;4987284;28;20070;-84
2024/01/17 03:07:18;;;;;;;18.40;9.43;;;;;;;;;;4975563;28;20074;-85
2024/01/17 03:09:44;;;;;;;17.25;8.85;;;;;;;;;;4982149;28;20053;-84
2024/01/17 03:12:10;;;;;;;16.08;9.48;;;;;;;;;;4967587;28;20394;-84
2024/01/17 03:14:36;;;;;;;15.10;9.52;;;;;;;;;;4990164;28;20038;-84
2024/01/17 03:17:03;;;;;;;11.65;8.75;;;;;;;;;;4990535;28;20050;-84
2024/01/17 03:19:29;;;;;;;13.55;7.97;;;;;;;;;;4985603;28;20314;-84
2024/01/17 03:21:55;;;;;;;14.65;8.07;;;;;;;;;;4981253;28;20041;-85
2024/01/17 03:24:21;;;;;;;16.13;9.27;;;;;;;;;;4975718;28;20478;-85
2024/01/17 03:26:47;;;;;;;17.65;8.95;;;;;;;;;;4989992;28;20054;-85
2024/01/17 03:29:13;;;;;;;14.63;8.43;;;;;;;;;;4991482;28;20046;-84
2024/01/17 03:31:39;;;;;;;15.00;8.05;;;;;;;;;;4970921;28;20070;-84
2024/01/17 03:34:05;;;;;;;14.57;8.45;;;;;;;;;;4978156;28;20090;-84
2024/01/17 03:36:31;;;;;;;16.67;9.25;;;;;;;;;;4985651;28;20522;-84
2024/01/17 03:38:57;;;;;;;15.57;8.23;;;;;;;;;;4987743;28;20117;-85
2024/01/17 03:41:23;;;;;;;11.43;5.00;;;;;;;;;;4985475;28;20540;-85
2024/01/17 03:43:51;;;;;;;15.38;9.30;;;;;;;;;;4993889;28;20034;-84
2024/01/17 03:46:17;;;;;;;12.98;7.32;;;;;;;;;;4978023;28;20046;-84
2024/01/17 03:48:43;;;;;;;13.30;7.35;;;;;;;;;;4991949;28;20061;-84
2024/01/17 03:51:09;;;;;;;12.32;8.60;;;;;;;;;;4987642;28;20438;-84
2024/01/17 03:53:35;;;;;;;7.15;5.35;;;;;;;;;;4982712;28;20054;-84
2024/01/17 03:56:01;;;;;;;7.15;4.60;;;;;;;;;;4988041;28;20061;-84
2024/01/17 03:58:27;;;;;;;15.90;9.73;;;;;;;;;;4987967;28;20042;-84
2024/01/17 04:00:53;;;;;;;13.93;9.15;;;;;;;;;;4980456;28;20046;-84
2024/01/17 04:03:19;;;;;;;9.38;5.85;;;;;;;;;;4991977;28;20060;-85
2024/01/17 04:05:45;;;;;;;13.20;8.18;;;;;;;;;;4986357;28;20069;-84
2024/01/17 04:08:11;;;;;;;14.02;8.15;;;;;;;;;;4984762;28;20048;-84
2024/01/17 04:10:37;;;;;;;12.30;9.43;;;;;;;;;;4993432;28;20078;-84
2024/01/17 04:13:03;;;;;;;9.07;6.38;;;;;;;;;;4971601;28;20038;-84
2024/01/17 04:15:29;;;;;;;10.07;6.60;;;;;;;;;;4993695;28;20549;-84
2024/01/17 04:17:55;;;;;;;8.93;5.40;;;;;;;;;;4993487;28;20080;-84
2024/01/17 04:20:21;;;;;;;10.07;5.70;;;;;;;;;;4975252;28;20042;-84
2024/01/17 04:22:47;;;;;;;13.60;9.35;;;;;;;;;;4976804;28;20045;-84
2024/01/17 04:25:13;;;;;;;12.95;8.73;;;;;;;;;;4974942;28;20121;-84
2024/01/17 04:27:39;;;;;;;11.63;7.63;;;;;;;;;;4994382;28;20049;-84
2024/01/17 04:30:06;;;;;;;12.23;7.80;;;;;;;;;;4993815;28;20046;-84
2024/01/17 04:32:35;;;;;;;5.57;3.70;;;;;;;;;;4988524;28;20046;-84
2024/01/17 04:35:01;;;;;;;13.27;6.93;;;;;;;;;;4984592;28;20043;-84
2024/01/17 04:37:28;;;;;;;13.00;7.38;;;;;;;;;;4996153;28;20046;-84
2024/01/17 04:39:54;;;;;;;13.65;7.22;;;;;;;;;;5000794;28;20050;-84
2024/01/17 04:42:19;;;;;;;11.60;7.20;;;;;;;;;;4983105;28;20121;-84
2024/01/17 04:44:46;;;;;;;9.35;5.88;;;;;;;;;;4986633;28;20125;-83
2024/01/17 04:47:15;;;;;;;12.20;7.50;;;;;;;;;;5005047;28;20084;-85
2024/01/17 04:49:42;;;;;;;14.90;9.38;;;;;;;;;;5001550;28;20390;-84
2024/01/17 04:52:09;;;;;;;10.23;6.50;;;;;;;;;;5002231;28;20382;-84
2024/01/17 04:54:35;;;;;;;11.30;6.20;;;;;;;;;;5000994;28;20045;-84
2024/01/17 04:57:01;;;;;;;12.65;8.57;;;;;;;;;;5004820;28;20030;-84
2024/01/17 04:59:27;;;;;;;7.10;6.15;;;;;;;;;;5001918;28;20043;-84
2024/01/17 05:01:53;;;;;;;12.40;6.65;;;;;;;;;;5002239;28;20037;-84
2024/01/17 05:04:19;;;;;;;7.30;6.47;;;;;;;;;;4996234;28;20030;-84
2024/01/17 05:06:46;;;;;;;10.75;7.25;;;;;;;;;;5001150;28;20049;-84
2024/01/17 05:09:12;;;;;;;10.60;8.20;;;;;;;;;;4997144;28;20129;-84
2024/01/17 05:11:38;;;;;;;9.32;5.25;;;;;;;;;;5005389;28;20066;-85
2024/01/17 05:14:04;;;;;;;10.38;6.28;;;;;;;;;;5010332;28;20081;-84
2024/01/17 05:16:30;;;;;;;11.20;7.55;;;;;;;;;;5008226;28;20068;-84
2024/01/17 05:18:56;;;;;;;12.95;7.50;;;;;;;;;;5008487;28;20093;-84
2024/01/17 05:21:22;;;;;;;11.55;6.30;;;;;;;;;;5003531;28;20489;-84
2024/01/17 05:23:48;;;;;;;9.88;5.57;;;;;;;;;;4998316;28;20070;-84
2024/01/17 05:26:14;;;;;;;9.07;5.70;;;;;;;;;;5003061;28;20195;-84
2024/01/17 05:28:40;;;;;;;6.53;5.05;;;;;;;;;;4999731;28;20049;-84
2024/01/17 05:31:06;;;;;;;10.20;7.15;;;;;;;;;;5000325;28;20042;-84
2024/01/17 05:33:32;;;;;;;12.05;6.78;;;;;;;;;;4999930;28;20038;-84
2024/01/17 05:35:58;;;;;;;7.80;5.10;;;;;;;;;;4986688;28;20054;-84
2024/01/17 05:38:24;;;;;;;1.85;1.35;;;;;;;;;;4997878;28;20054;-84
2024/01/17 05:40:50;;;;;;;7.60;5.70;;;;;;;;;;5002236;28;20045;-84
2024/01/17 05:43:16;;;;;;;9.65;6.32;;;;;;;;;;4994005;28;20137;-84
2024/01/17 05:45:42;;;;;;;12.00;6.28;;;;;;;;;;4996681;28;20547;-83
2024/01/17 05:48:08;;;;;;;12.45;7.20;;;;;;;;;;5000183;28;20038;-84
2024/01/17 05:50:34;;;;;;;9.85;5.85;;;;;;;;;;4999837;28;20377;-84
2024/01/17 05:53:01;;;;;;;5.82;4.30;;;;;;;;;;5001570;28;20038;-84
2024/01/17 05:55:27;;;;;;;10.07;6.45;;;;;;;;;;5001598;28;20165;-84
2024/01/17 05:57:54;;;;;;;9.45;6.10;;;;;;;;;;5002936;28;20073;-84
2024/01/17 06:00:20;;;;;;;8.02;5.05;;;;;;;;;;4999518;28;20045;-84
2024/01/17 06:02:46;;;;;;;8.98;5.20;;;;;;;;;;5001586;28;20038;-84
2024/01/17 06:05:12;;;;;;;9.45;4.63;;;;;;;;;;4999649;28;20037;-84
2024/01/17 06:07:40;;;;;;;9.63;5.43;;;;;;;;;;5000076;28;20046;-84
2024/01/17 06:10:06;;;;;;;9.38;6.47;;;;;;;;;;5006269;28;20077;-84
2024/01/17 06:12:32;;;;;;;8.82;5.68;;;;;;;;;;4997927;28;20038;-84
2024/01/17 06:14:58;;;;;;;8.27;5.57;;;;;;;;;;4997175;28;20125;-84
2024/01/17 06:17:24;;;;;;;12.25;6.70;;;;;;;;;;5007303;28;20057;-83
2024/01/17 06:19:50;;;;;;;8.23;5.18;;;;;;;;;;5009129;28;20038;-83
2024/01/17 06:22:19;;;;;;;7.40;6.07;;;;;;;;;;5000123;28;20042;-84
2024/01/17 06:24:46;;;;;;;9.75;6.35;;;;;;;;;;4996086;28;20096;-84
2024/01/17 06:27:12;;;;;;;10.02;6.13;;;;;;;;;;4984171;28;20041;-84
2024/01/17 06:29:42;;;;;;;9.55;6.57;;;;;;;;;;4980120;28;20428;-83
2024/01/17 06:32:08;;;;;;;8.60;5.95;;;;;;;;;;4973871;28;20379;-83
2024/01/17 06:34:34;;;;;;;9.48;6.63;;;;;;;;;;4990575;28;20533;-83
2024/01/17 06:37:00;;;;;;;7.93;5.30;;;;;;;;;;4997400;28;20058;-83
2024/01/17 06:39:26;;;;;;;8.00;5.10;;;;;;;;;;4970682;28;20034;-83
2024/01/17 06:41:52;;;;;;;11.20;5.68;;;;;;;;;;4985131;28;20393;-82
2024/01/17 06:44:19;;;;;;;6.28;4.07;;;;;;;;;;4986187;28;20030;-83
2024/01/17 06:46:45;;;;;;;6.78;4.97;;;;;;;;;;4996097;28;20092;-83
2024/01/17 06:49:11;;;;;;;11.30;5.95;;;;;;;;;;4990440;28;20047;-82
2024/01/17 06:51:38;;;;;;;12.15;6.15;;;;;;;;;;4991059;28;20082;-83
2024/01/17 06:54:04;;;;;;;9.05;4.72;;;;;;;;;;4992120;28;20043;-83
2024/01/17 06:56:30;;;;;;;8.25;5.35;;;;;;;;;;4989214;28;20068;-82
2024/01/17 06:58:58;;;;;;;6.65;4.60;;;;;;;;;;4996392;28;20049;-83
2024/01/17 07:01:24;;;;;;;7.00;5.00;;;;;;;;;;4998457;28;20409;-82
2024/01/17 07:03:50;;;;;;;8.40;5.32;;;;;;;;;;5003719;28;20047;-83
2024/01/17 07:06:16;;;;;;;8.95;4.95;;;;;;;;;;5001111;28;20061;-82
2024/01/17 07:08:42;;;;;;;8.38;4.78;;;;;;;;;;4993788;28;20553;-82
2024/01/17 07:11:11;;;;;;;9.80;6.05;;;;;;;;;;5001907;28;20042;-82
2024/01/17 07:13:38;;;;;;;12.07;6.38;;;;;;;;;;4980602;28;20042;-82
2024/01/17 07:16:04;;;;;;;8.15;5.50;;;;;;;;;;5009253;28;20396;-83
2024/01/17 07:18:30;;;;;;;8.80;4.97;;;;;;;;;;4993449;28;20066;-83
2024/01/17 07:20:56;;;;;;;8.55;5.55;;;;;;;;;;4985002;28;20043;-82
2024/01/17 07:23:22;;;;;;;9.90;5.70;;;;;;;;;;5008327;28;20386;-82
2024/01/17 07:25:48;;;;;;;9.30;6.13;;;;;;;;;;5007340;28;20137;-83
2024/01/17 07:28:14;;;;;;;12.88;6.70;;;;;;;;;;5001794;28;20038;-82
2024/01/17 07:30:42;;;;;;;9.32;5.22;;;;;;;;;;5005244;28;20044;-83
2024/01/17 07:33:08;;;;;;;6.13;4.78;;;;;;;;;;5002199;28;20051;-83
2024/01/17 07:35:34;;;;;;;11.43;5.60;;;;;;;;;;4984635;28;20057;-82
2024/01/17 07:38:02;;;;;;;9.10;5.70;;;;;;;;;;4991270;28;20050;-82
2024/01/17 07:40:28;;;;;;;8.80;5.68;;;;;;;;;;4989695;28;20047;-82
2024/01/17 07:42:54;;;;;;;12.35;6.38;;;;;;;;;;4986926;28;20042;-82
2024/01/17 07:45:21;;;;;;;9.20;5.80;;;;;;;;;;4981102;28;20080;-83
2024/01/17 07:47:47;;;;;;;7.18;4.80;;;;;;;;;;4994053;28;20065;-83
2024/01/17 07:50:13;;;;;;;9.80;5.53;;;;;;;;;;4991968;28;20044;-83
2024/01/17 07:52:40;;;;;;;15.77;6.80;;;;;;;;;;4986882;28;20070;-82
2024/01/17 07:55:06;;;;;;;7.35;4.80;;;;;;;;;;4996120;28;20038;-82
2024/01/17 07:57:32;;;;;;;11.65;6.22;;;;;;;;;;4978932;28;20038;-81
2024/01/17 07:59:58;;;;;;;9.60;5.43;;;;;;;;;;5005869;28;20042;-83
2024/01/17 08:02:25;;;;;;;9.05;4.93;;;;;;;;;;4996700;28;20050;-83
2024/01/17 08:04:52;;;;;;;8.73;5.95;;;;;;;;;;5005971;28;20085;-83
2024/01/17 08:07:24;;;;;;;8.52;4.32;;;;;;;;;;5020366;28;20106;-83
2024/01/17 08:09:50;;;;;;;7.05;4.85;;;;;;;;;;5020260;28;20057;-83
2024/01/17 08:12:16;;;;;;;8.02;4.93;;;;;;;;;;5022928;28;20049;-82
2024/01/17 08:14:42;;;;;;;14.63;5.53;;;;;;;;;;5013547;28;20041;-82
2024/01/17 08:17:08;;;;;;;9.35;5.35;;;;;;;;;;5012998;28;20044;-82
2024/01/17 08:19:34;;;;;;;7.90;5.50;;;;;;;;;;5004742;28;20042;-82
2024/01/17 08:22:00;;;;;;;10.60;5.57;;;;;;;;;;5001931;28;20070;-81
2024/01/17 08:24:26;;;;;;;9.57;6.25;;;;;;;;;;5003942;28;20042;-82
2024/01/17 08:26:52;;;;;;;14.38;6.57;;;;;;;;;;5006094;28;20508;-82
2024/01/17 08:29:19;;;;;;;5.60;4.35;;;;;;;;;;5010321;28;20045;-82
2024/01/17 08:31:45;;;;;;;7.88;5.50;;;;;;;;;;5011812;28;20092;-82
2024/01/17 08:34:11;;;;;;;7.63;4.38;;;;;;;;;;4991782;28;20062;-82
2024/01/17 08:36:37;;;;;;;6.65;5.50;;;;;;;;;;4994284;28;20374;-82
2024/01/17 08:39:05;;;;;;;7.82;4.82;;;;;;;;;;5004299;28;20046;-82
2024/01/17 08:41:31;;;;;;;7.45;4.65;;;;;;;;;;5001445;28;20555;-82
2024/01/17 08:43:57;;;;;;;10.18;4.35;;;;;;;;;;4991753;28;20042;-82
2024/01/17 08:46:23;;;;;;;9.35;5.60;;;;;;;;;;5009836;28;20068;-82
2024/01/17 08:48:49;;;;;;;7.05;4.50;;;;;;;;;;4992217;28;20038;-82
2024/01/17 08:51:15;;;;;;;11.20;6.45;;;;;;;;;;5009426;28;20037;-82
2024/01/17 08:53:41;;;;;;;7.60;4.95;;;;;;;;;;5004701;28;20042;-82
2024/01/17 08:56:07;;;;;;;9.30;5.85;;;;;;;;;;5004836;28;20121;-82
2024/01/17 08:58:33;;;;;;;9.07;5.72;;;;;;;;;;5003006;28;20422;-82
2024/01/17 09:01:01;;;;;;;9.65;5.70;;;;;;;;;;5006160;28;20030;-82
2024/01/17 09:03:29;;;;;;;9.38;6.07;;;;;;;;;;4983479;28;20050;-82
2024/01/17 09:05:55;;;;;;;9.73;6.65;;;;;;;;;;5003127;28;20410;-82
2024/01/17 09:08:21;;;;;;;9.15;6.50;;;;;;;;;;5008197;28;20057;-82
2024/01/17 09:10:47;;;;;;;8.05;6.03;;;;;;;;;;4989544;28;20046;-81
2024/01/17 09:13:13;;;;;;;6.72;4.38;;;;;;;;;;5006052;28;20037;-81
2024/01/17 09:15:39;;;;;;;7.32;4.32;;;;;;;;;;5004062;28;20042;-82
2024/01/17 09:18:05;;;;;;;7.85;4.80;;;;;;;;;;5014161;28;20034;-82
2024/01/17 09:20:31;;;;;;;9.05;6.05;;;;;;;;;;4986973;28;20513;-81
2024/01/17 09:22:57;;;;;;;8.40;5.60;;;;;;;;;;4999387;28;20560;-81
2024/01/17 09:25:24;;;;;;;8.75;5.65;;;;;;;;;;5001678;28;20511;-82
2024/01/17 09:27:50;;;;;;;8.55;5.85;;;;;;;;;;4995307;28;20493;-82
2024/01/17 09:30:16;;;;;;;11.38;5.20;;;;;;;;;;5001073;28;20077;-82
2024/01/17 09:32:47;;;;;;;8.43;4.65;;;;;;;;;;5001660;28;20584;-82
2024/01/17 09:35:13;;;;;;;7.65;4.63;;;;;;;;;;4993706;28;20092;-82
2024/01/17 09:37:39;;;;;;;9.38;4.72;;;;;;;;;;4987207;28;20498;-81
2024/01/17 09:40:05;;;;;;;9.05;6.00;;;;;;;;;;4989569;28;20044;-81
2024/01/17 09:42:34;;;;;;;13.07;6.97;;;;;;;;;;4989413;28;20046;-81
2024/01/17 09:45:02;;;;;;;11.32;5.93;;;;;;;;;;4968788;28;20077;-83
2024/01/17 09:47:29;;;;;;;9.20;5.63;;;;;;;;;;4987944;28;20042;-82
2024/01/17 09:49:55;;;;;;;9.77;5.55;;;;;;;;;;4986380;28;20054;-82
2024/01/17 09:52:22;;;;;;;5.93;4.10;;;;;;;;;;4979812;28;20046;-82
2024/01/17 09:54:50;;;;;;;10.23;6.25;;;;;;;;;;4981078;28;20049;-82
2024/01/17 09:57:22;;;;;;;6.28;3.65;;;;;;;;;;4990844;28;20042;-83
2024/01/17 09:59:57;;;;;;;8.13;5.72;;;;;;;;;;4985485;28;20501;-82
2024/01/17 10:02:25;;;;;;;7.85;4.72;;;;;;;;;;4991794;28;20042;-83
2024/01/17 10:04:51;;;;;;;8.27;4.82;;;;;;;;;;4966365;28;20879;-83
2024/01/17 10:07:17;;;;;;;7.57;5.28;;;;;;;;;;4987216;28;20046;-83
2024/01/17 10:09:44;;;;;;;9.70;4.95;;;;;;;;;;4975436;28;20556;-82
2024/01/17 10:12:11;;;;;;;5.60;4.38;;;;;;;;;;4982042;28;20058;-83
2024/01/17 10:14:37;;;;;;;9.65;6.30;;;;;;;;;;4983365;28;20434;-83
2024/01/17 10:17:05;;;;;;;7.03;4.32;;;;;;;;;;4961685;28;20035;-83
2024/01/17 10:19:31;;;;;;;9.75;5.72;;;;;;;;;;4976002;28;20043;-83
2024/01/17 10:22:02;;;;;;;9.63;5.35;;;;;;;;;;4986323;28;20141;-83
2024/01/17 10:24:28;;;;;;;8.80;5.13;;;;;;;;;;4988777;28;20045;-83
2024/01/17 10:26:55;;;;;;;6.97;3.38;;;;;;;;;;4977223;28;20070;-83
2024/01/17 10:29:21;;;;;;;5.82;4.00;;;;;;;;;;4992824;28;20042;-84
2024/01/17 10:31:47;;;;;;;9.07;4.97;;;;;;;;;;4975778;28;20555;-84
2024/01/17 10:34:13;;;;;;;5.97;4.63;;;;;;;;;;4976556;28;20049;-83
2024/01/17 10:36:39;;;;;;;6.68;4.70;;;;;;;;;;4998766;28;20083;-84
2024/01/17 10:39:05;;;;;;;7.50;3.60;;;;;;;;;;5001653;28;20046;-84
2024/01/17 10:41:32;;;;;;;10.82;4.57;;;;;;;;;;5000941;28;20458;-85
2024/01/17 10:44:00;;;;;;;4.50;3.50;;;;;;;;;;4997035;28;20088;-84
2024/01/17 10:46:26;;;;;;;8.05;4.00;;;;;;;;;;4996330;28;20042;-84
2024/01/17 10:48:52;;;;;;;7.10;4.85;;;;;;;;;;4984881;28;20029;-84
2024/01/17 10:51:22;;;;;;;7.70;4.63;;;;;;;;;;4981545;28;20402;-85
2024/01/17 10:53:49;;;;;;;7.72;4.43;;;;;;;;;;4975929;28;20041;-85
2024/01/17 10:56:20;;;;;;;5.25;4.32;;;;;;;;;;4985946;28;20044;-83
2024/01/17 10:58:50;;;;;;;10.30;5.50;;;;;;;;;;4997078;28;20038;-83
2024/01/17 11:01:31;;;;;;;8.23;5.32;;;;;;;;;;4993963;28;20501;-83
2024/01/17 11:03:59;;;;;;;7.07;3.50;;;;;;;;;;4987044;28;20046;-85
2024/01/17 11:06:25;;;;;;;9.52;5.38;;;;;;;;;;5001012;28;20046;-85
2024/01/17 11:08:52;;;;;;;7.20;5.65;;;;;;;;;;4985855;28;20149;-86
2024/01/17 11:11:19;;;;;;;5.10;3.45;;;;;;;;;;4999725;28;20042;-86
2024/01/17 11:13:45;;;;;;;7.22;4.13;;;;;;;;;;4999106;28;20042;-85
2024/01/17 11:16:12;;;;;;;9.50;6.20;;;;;;;;;;5002839;28;20397;-85
2024/01/17 11:18:38;;;;;;;5.75;3.80;;;;;;;;;;4995589;28;20038;-86
2024/01/17 11:21:05;;;;;;;5.10;3.83;;;;;;;;;;4998826;28;20035;-86
2024/01/17 11:23:38;;;;;;;7.85;4.82;;;;;;;;;;4983989;28;20034;-87
2024/01/17 11:26:21;;;;;;;9.30;4.93;;;;;;;;;;4999194;28;20084;-85
2024/01/17 11:29:07;;;;;;;8.13;4.93;;;;;;;;;;4983175;28;20050;-86
2024/01/17 11:31:41;;;;;;;6.97;4.88;;;;;;;;;;4986334;28;20108;-85
2024/01/17 11:34:08;;;;;;;7.78;4.72;;;;;;;;;;5003739;28;20056;-85
2024/01/17 11:36:41;;;;;;;7.65;4.65;;;;;;;;;;5002638;28;20046;-85
2024/01/17 11:39:09;;;;;;;7.88;4.90;;;;;;;;;;5002282;28;20042;-86
2024/01/17 11:41:38;;;;;;;8.63;5.07;;;;;;;;;;5005759;28;20044;-84
2024/01/17 11:44:05;;;;;;;8.98;4.47;;;;;;;;;;4989370;28;20042;-84
2024/01/17 11:46:32;;;;;;;7.32;4.82;;;;;;;;;;5017427;28;20052;-84
2024/01/17 11:48:58;;;;;;;8.23;4.30;;;;;;;;;;5000317;28;20056;-84
2024/01/17 11:51:27;;;;;;;7.60;4.07;;;;;;;;;;4987505;28;20084;-84
2024/01/17 11:53:53;;;;;;;7.72;4.47;;;;;;;;;;5031773;28;20041;-84
2024/01/17 11:56:20;;;;;;;7.40;4.53;;;;;;;;;;5000807;28;20048;-85
2024/01/17 11:58:53;;;;;;;5.93;3.60;;;;;;;;;;5004847;28;20034;-85
2024/01/17 12:01:24;;;;;;;7.03;4.25;;;;;;;;;;5006060;28;20052;-85
2024/01/17 12:03:50;;;;;;;;;;;;;;;;;;5008825;28;20038;-83
2024/01/17 12:06:17;;;;;;;3.80;3.40;;;;;;;;;;4985613;28;19924;-85
2024/01/17 12:08:44;;;;;;;7.13;4.75;;;;;;;;;;5007329;28;20505;-84
2024/01/17 12:11:10;;;;;;;7.18;5.75;;;;;;;;;;5008373;28;20448;-85
2024/01/17 12:13:36;;;;;;;10.18;4.10;;;;;;;;;;5004979;28;20037;-86
2024/01/17 12:16:03;;;;;;;8.57;5.70;;;;;;;;;;5003659;28;20058;-84
2024/01/17 12:18:29;;;;;;;6.68;4.32;;;;;;;;;;5002932;28;20049;-86
2024/01/17 12:20:55;;;;;;;6.72;4.53;;;;;;;;;;4989669;28;20038;-84
2024/01/17 12:23:22;;;;;;;6.68;4.35;;;;;;;;;;4985024;28;20038;-85
2024/01/17 12:25:48;;;;;;;11.57;4.93;;;;;;;;;;4999559;28;20100;-86
2024/01/17 12:28:21;;;;;;;8.57;5.50;;;;;;;;;;4984900;28;20393;-85
2024/01/17 12:31:00;;;;;;;8.20;4.75;;;;;;;;;;4987368;28;20045;-85
2024/01/17 12:33:31;;;;;;;4.65;3.40;;;;;;;;;;5002876;28;20045;-85
2024/01/17 12:36:00;;;;;;;8.50;4.88;;;;;;;;;;4996345;28;20397;-85
2024/01/17 12:38:27;;;;;;;6.88;4.47;;;;;;;;;;5005367;28;20567;-84
2024/01/17 12:40:56;;;;;;;6.50;4.13;;;;;;;;;;5002901;28;20045;-85
2024/01/17 12:43:22;;;;;;;5.68;4.07;;;;;;;;;;4998305;28;20042;-83
2024/01/17 12:45:48;;;;;;;6.15;4.50;;;;;;;;;;5000506;28;20048;-83
2024/01/17 12:48:15;;;;;;;7.72;3.90;;;;;;;;;;5026843;28;20073;-83
2024/01/17 12:50:46;;;;;;;7.40;4.90;;;;;;;;;;5007619;28;20439;-83
2024/01/17 12:53:12;;;;;;;7.97;3.85;;;;;;;;;;5004562;28;20507;-84
2024/01/17 12:55:39;;;;;;;6.20;4.10;;;;;;;;;;4997935;28;20401;-84
2024/01/17 12:58:05;;;;;;;7.47;4.50;;;;;;;;;;5005104;28;20488;-83
2024/01/17 13:00:32;;;;;;;10.88;4.70;;;;;;;;;;5023978;28;20046;-86
2024/01/17 13:02:58;;;;;;;8.50;5.10;;;;;;;;;;5008244;28;20052;-87
2024/01/17 13:05:24;;;;;;;8.15;4.97;;;;;;;;;;5006351;28;20037;-86
2024/01/17 13:07:50;;;;;;;7.68;4.78;;;;;;;;;;5006916;28;20052;-85
2024/01/17 13:10:17;;;;;;;12.93;4.88;;;;;;;;;;4993868;28;20048;-86
2024/01/17 13:12:43;;;;;;;6.72;4.13;;;;;;;;;;4986679;28;20041;-85
2024/01/17 13:15:10;;;;;;;7.75;5.00;;;;;;;;;;4978110;28;20468;-86
2024/01/17 13:17:36;;;;;;;5.22;3.90;;;;;;;;;;4997218;28;20038;-85
2024/01/17 13:20:11;;;;;;;7.00;4.13;;;;;;;;;;4988002;28;20038;-85
2024/01/17 13:22:37;;;;;;;7.70;4.25;;;;;;;;;;4981159;28;20107;-85
2024/01/17 13:25:04;;;;;;;7.70;4.18;;;;;;;;;;4982427;28;20083;-86
2024/01/17 13:27:29;;;;;;;8.20;3.88;;;;;;;;;;5005152;28;20041;-84
2024/01/17 13:29:56;;;;;;;6.00;3.30;;;;;;;;;;5015587;28;20456;-84
2024/01/17 13:32:22;;;;;;;8.13;4.25;;;;;;;;;;4999195;28;20049;-87
2024/01/17 13:34:49;;;;;;;8.75;4.15;;;;;;;;;;5003674;28;20060;-85
2024/01/17 13:37:15;;;;;;;7.13;4.15;;;;;;;;;;5002446;28;20062;-85
2024/01/17 13:39:41;;;;;;;6.05;3.70;;;;;;;;;;5001933;28;20054;-85
2024/01/17 13:42:07;;;;;;;6.20;4.22;;;;;;;;;;4983585;28;20048;-85
2024/01/17 13:44:33;;;;;;;5.13;4.50;;;;;;;;;;5003263;28;20453;-84
2024/01/17 13:46:59;;;;;;;4.57;3.15;;;;;;;;;;5005633;28;20044;-86
2024/01/17 13:49:25;;;;;;;5.55;3.47;;;;;;;;;;4985578;28;20132;-84
2024/01/17 13:51:53;;;;;;;7.05;4.30;;;;;;;;;;4981736;28;20499;-83
2024/01/17 13:54:19;;;;;;;5.57;3.10;;;;;;;;;;4977007;28;20050;-85
2024/01/17 13:56:45;;;;;;;6.20;4.20;;;;;;;;;;4994278;28;20041;-86
2024/01/17 13:59:11;;;;;;;13.10;5.25;;;;;;;;;;4996252;28;20033;-86
2024/01/17 14:01:37;;;;;;;6.53;4.03;;;;;;;;;;4987189;28;20438;-83
2024/01/17 14:04:04;;;;;;;7.13;4.40;;;;;;;;;;4986762;28;20037;-85
2024/01/17 14:06:30;;;;;;;7.50;4.28;;;;;;;;;;4983712;28;20034;-86
2024/01/17 14:08:56;;;;;;;6.40;3.30;;;;;;;;;;4982789;28;20088;-88
2024/01/17 14:11:22;;;;;;;8.10;4.65;;;;;;;;;;5006711;28;20072;-86
2024/01/17 14:13:48;;;;;;;5.55;2.85;;;;;;;;;;4979228;28;20084;-86
2024/01/17 14:16:14;;;;;;;6.05;3.20;;;;;;;;;;4987051;28;20069;-86
2024/01/17 14:18:40;;;;;;;7.22;4.90;;;;;;;;;;4993506;28;20049;-86
2024/01/17 14:21:06;;;;;;;6.53;3.88;;;;;;;;;;5001438;28;20034;-88
2024/01/17 14:23:32;;;;;;;7.53;3.67;;;;;;;;;;5002538;28;20100;-85
2024/01/17 14:25:58;;;;;;;5.45;3.35;;;;;;;;;;4988383;28;20456;-86
2024/01/17 14:28:24;;;;;;;6.25;3.53;;;;;;;;;;5009307;28;20041;-86
2024/01/17 14:30:51;;;;;;;6.10;3.88;;;;;;;;;;4990264;28;20516;-86
2024/01/17 14:33:19;;;;;;;6.28;4.72;;;;;;;;;;5012926;28;20063;-84
2024/01/17 14:35:45;;;;;;;8.15;4.90;;;;;;;;;;5024732;28;20048;-84